createdAt,value
2023-11-29T00:01:33.235Z,-1.33
2023-11-29T00:04:01.824Z,-1.30
2023-11-29T00:06:30.478Z,-1.31
2023-11-29T00:08:59.061Z,-1.23
2023-11-29T00:11:28.338Z,-1.49
2023-11-29T00:13:58.362Z,-1.43
2023-11-29T00:16:26.883Z,-1.37
2023-11-29T00:18:55.517Z,-1.33
2023-11-29T00:21:24.083Z,-1.31
2023-11-29T00:23:52.606Z,-1.28
2023-11-29T00:26:24.095Z,-1.26
2023-11-29T00:28:53.206Z,-1.22
2023-11-29T00:31:23.311Z,-1.32
2023-11-29T00:33:51.822Z,-1.45
2023-11-29T00:36:20.370Z,-1.43
2023-11-29T00:38:48.937Z,-1.59
2023-11-29T00:41:17.462Z,-1.68
2023-11-29T00:43:46.267Z,-1.70
2023-11-29T00:46:15.429Z,-1.59
2023-11-29T00:48:45.369Z,-1.50
2023-11-29T00:51:13.907Z,-1.58
2023-11-29T00:53:42.492Z,-1.56
2023-11-29T00:56:11.568Z,-1.59
2023-11-29T00:58:40.089Z,-1.52
2023-11-29T01:01:08.733Z,-1.44
2023-11-29T01:03:37.342Z,-1.37
2023-11-29T01:06:08.176Z,-1.32
2023-11-29T01:08:36.939Z,-1.33
2023-11-29T01:11:06.611Z,-1.39
2023-11-29T01:13:35.211Z,-1.48
2023-11-29T01:16:03.794Z,-1.51
2023-11-29T01:18:34.432Z,-1.53
2023-11-29T01:21:03.737Z,-1.50
2023-11-29T01:23:33.789Z,-1.48
2023-11-29T01:26:02.572Z,-1.50
2023-11-29T01:28:31.128Z,-1.48
2023-11-29T01:30:59.611Z,-1.46
2023-11-29T01:33:28.323Z,-1.44
2023-11-29T01:35:56.845Z,-1.45
2023-11-29T01:38:25.701Z,-1.43
2023-11-29T01:41:02.288Z,-1.50
2023-11-29T01:43:30.865Z,-1.57
2023-11-29T01:45:59.829Z,-1.70
2023-11-29T01:48:29.512Z,-1.72
2023-11-29T01:50:59.514Z,-1.72
2023-11-29T01:53:30.282Z,-1.72
2023-11-29T01:56:00.373Z,-1.81
2023-11-29T01:58:30.189Z,-1.93
2023-11-29T02:01:03.068Z,-1.96
2023-11-29T02:03:31.656Z,-1.90
2023-11-29T02:06:00.480Z,-1.87
2023-11-29T02:08:31.492Z,-1.81
2023-11-29T02:11:01.534Z,-1.81
2023-11-29T02:13:30.094Z,-1.84
2023-11-29T02:15:58.579Z,-1.95
2023-11-29T02:18:27.120Z,-1.94
2023-11-29T02:20:55.857Z,-1.92
2023-11-29T02:23:27.429Z,-1.85
2023-11-29T02:25:57.430Z,-1.79
2023-11-29T02:28:25.875Z,-1.81
2023-11-29T02:30:54.401Z,-1.83
2023-11-29T02:33:23.186Z,-1.89
2023-11-29T02:35:51.643Z,-1.93
2023-11-29T02:38:20.884Z,-2.04
2023-11-29T02:40:49.370Z,-2.05
2023-11-29T02:43:19.410Z,-2.13
2023-11-29T02:45:47.940Z,-2.16
2023-11-29T02:48:16.483Z,-2.12
2023-11-29T02:50:45.612Z,-2.14
2023-11-29T02:53:14.193Z,-2.14
2023-11-29T02:55:42.963Z,-2.13
2023-11-29T02:58:11.656Z,-2.22
2023-11-29T03:00:41.612Z,-2.16
2023-11-29T03:03:10.302Z,-2.20
2023-11-29T03:05:38.921Z,-2.25
2023-11-29T03:08:09.363Z,-2.25
2023-11-29T03:10:37.934Z,-2.25
2023-11-29T03:13:06.440Z,-2.24
2023-11-29T03:15:35.008Z,-2.15
2023-11-29T03:18:05.409Z,-2.10
2023-11-29T03:20:34.119Z,-2.12
2023-11-29T03:23:02.624Z,-2.09
2023-11-29T03:25:31.133Z,-2.09
2023-11-29T03:27:59.742Z,-2.13
2023-11-29T03:30:28.231Z,-2.13
2023-11-29T03:32:56.760Z,-2.20
2023-11-29T03:35:26.773Z,-2.28
2023-11-29T03:37:55.439Z,-2.28
2023-11-29T03:40:23.909Z,-2.22
2023-11-29T03:42:52.336Z,-2.12
2023-11-29T03:45:20.867Z,-2.09
2023-11-29T03:47:50.224Z,-2.17
2023-11-29T03:50:18.813Z,-2.17
2023-11-29T03:52:49.143Z,-2.12
2023-11-29T03:55:18.274Z,-2.05
2023-11-29T03:57:46.886Z,-1.99
2023-11-29T04:00:16.523Z,-1.97
2023-11-29T04:02:45.122Z,-1.96
2023-11-29T04:05:15.112Z,-1.90
2023-11-29T04:07:43.929Z,-1.91
2023-11-29T04:10:14.012Z,-1.86
2023-11-29T04:12:42.929Z,-1.99
2023-11-29T04:15:11.929Z,-2.00
2023-11-29T04:17:40.564Z,-1.98
2023-11-29T04:20:10.320Z,-1.98
2023-11-29T04:22:39.633Z,-1.98
2023-11-29T04:25:09.755Z,-1.95
2023-11-29T04:27:39.800Z,-1.89
2023-11-29T04:30:09.859Z,-1.86
2023-11-29T04:32:38.538Z,-1.87
2023-11-29T04:35:08.593Z,-1.97
2023-11-29T04:37:37.128Z,-1.90
2023-11-29T04:40:06.377Z,-1.86
2023-11-29T04:42:34.886Z,-1.80
2023-11-29T04:45:05.128Z,-1.78
2023-11-29T04:47:33.678Z,-1.77
2023-11-29T04:50:02.312Z,-1.72
2023-11-29T04:52:32.114Z,-1.67
2023-11-29T04:55:00.647Z,-1.64
2023-11-29T04:57:29.278Z,-1.59
2023-11-29T04:59:57.844Z,-1.54
2023-11-29T05:02:28.384Z,-1.49
2023-11-29T05:04:57.119Z,-1.46
2023-11-29T05:07:25.661Z,-1.42
2023-11-29T05:09:54.579Z,-1.45
2023-11-29T05:12:23.085Z,-1.61
2023-11-29T05:14:51.751Z,-1.76
2023-11-29T05:17:20.618Z,-1.72
2023-11-29T05:19:51.600Z,-1.69
2023-11-29T05:22:20.235Z,-1.64
2023-11-29T05:24:48.756Z,-1.63
2023-11-29T05:27:17.339Z,-1.66
2023-11-29T05:29:45.914Z,-1.70
2023-11-29T05:32:14.652Z,-1.66
2023-11-29T05:34:43.157Z,-1.62
2023-11-29T05:37:13.247Z,-1.68
2023-11-29T05:39:41.653Z,-1.65
2023-11-29T05:42:10.379Z,-1.59
2023-11-29T05:44:38.963Z,-1.59
2023-11-29T05:47:08.319Z,-1.61
2023-11-29T05:49:37.013Z,-1.64
2023-11-29T05:52:05.985Z,-1.63
2023-11-29T05:54:38.680Z,-1.59
2023-11-29T05:57:07.487Z,-1.53
2023-11-29T05:59:37.559Z,-1.47
2023-11-29T06:02:06.824Z,-1.45
2023-11-29T06:04:35.473Z,-1.41
2023-11-29T06:07:04.133Z,-1.38
2023-11-29T06:09:32.751Z,-1.37
2023-11-29T06:12:03.128Z,-1.34
2023-11-29T06:14:31.671Z,-1.38
2023-11-29T06:17:00.566Z,-1.38
2023-11-29T06:19:29.502Z,-1.37
2023-11-29T06:21:58.188Z,-1.33
2023-11-29T06:24:26.948Z,-1.33
2023-11-29T06:26:55.551Z,-1.31
2023-11-29T06:29:25.514Z,-1.29
2023-11-29T06:31:54.164Z,-1.27
2023-11-29T06:34:23.080Z,-1.34
2023-11-29T06:36:52.076Z,-1.42
2023-11-29T06:39:20.942Z,-1.41
2023-11-29T06:41:49.808Z,-1.42
2023-11-29T06:44:18.588Z,-1.38
2023-11-29T06:46:50.089Z,-1.41
2023-11-29T06:49:18.807Z,-1.45
2023-11-29T06:51:47.917Z,-1.41
2023-11-29T06:54:16.428Z,-1.38
2023-11-29T06:56:44.940Z,-1.54
2023-11-29T06:59:13.533Z,-1.66
2023-11-29T07:01:42.457Z,-1.81
2023-11-29T07:04:12.802Z,-1.98
2023-11-29T07:06:41.491Z,-2.14
2023-11-29T07:09:10.403Z,-2.25
2023-11-29T07:11:38.984Z,-2.30
2023-11-29T07:14:08.161Z,-2.30
2023-11-29T07:16:37.105Z,-2.27
2023-11-29T07:19:06.753Z,-2.35
2023-11-29T07:21:36.703Z,-2.36
2023-11-29T07:24:06.884Z,-2.34
2023-11-29T07:26:35.544Z,-2.31
2023-11-29T07:29:04.949Z,-2.35
2023-11-29T07:31:34.562Z,-2.45
2023-11-29T07:34:03.202Z,-2.53
2023-11-29T07:36:33.032Z,-2.51
2023-11-29T07:39:03.418Z,-2.47
2023-11-29T07:41:32.497Z,-2.37
2023-11-29T07:44:01.188Z,-2.29
2023-11-29T07:46:29.682Z,-2.20
2023-11-29T07:49:00.928Z,-2.13
2023-11-29T07:51:31.412Z,-2.05
2023-11-29T07:54:00.297Z,-1.94
2023-11-29T07:56:30.235Z,-1.89
2023-11-29T07:58:58.995Z,-1.86
2023-11-29T08:01:27.604Z,-1.82
2023-11-29T08:03:56.232Z,-1.77
2023-11-29T08:06:24.698Z,-1.72
2023-11-29T08:08:53.222Z,-1.68
2023-11-29T08:11:22.552Z,-1.63
2023-11-29T08:13:52.904Z,-1.63
2023-11-29T08:16:22.406Z,-1.67
2023-11-29T08:18:53.213Z,-1.65
2023-11-29T08:21:22.304Z,-1.65
2023-11-29T08:23:50.850Z,-1.67
2023-11-29T08:26:19.381Z,-1.83
2023-11-29T08:28:47.908Z,-1.85
2023-11-29T08:31:18.490Z,-1.80
2023-11-29T08:33:47.035Z,-1.68
2023-11-29T08:36:16.508Z,-1.68
2023-11-29T08:38:45.095Z,-1.79
2023-11-29T08:41:13.684Z,-1.71
2023-11-29T08:43:42.226Z,-1.67
2023-11-29T08:46:10.756Z,-1.68
2023-11-29T08:48:40.910Z,-1.66
2023-11-29T08:51:09.887Z,-1.60
2023-11-29T08:53:43.253Z,-1.64
2023-11-29T08:56:18.320Z,-1.74
2023-11-29T08:58:47.807Z,-1.68
2023-11-29T09:01:19.594Z,-1.58
2023-11-29T09:03:50.387Z,-1.61
2023-11-29T09:06:19.593Z,-1.65
2023-11-29T09:08:48.910Z,-1.70
2023-11-29T09:11:17.671Z,-1.76
2023-11-29T09:13:50.294Z,-1.82
2023-11-29T09:16:20.387Z,-1.89
2023-11-29T09:18:50.661Z,-1.83
2023-11-29T09:21:19.255Z,-1.98
2023-11-29T09:23:47.959Z,-1.96
2023-11-29T09:26:16.805Z,-1.88
2023-11-29T09:28:45.318Z,-1.81
2023-11-29T09:31:14.763Z,-1.77
2023-11-29T09:33:44.150Z,-1.72
2023-11-29T09:36:15.673Z,-1.66
2023-11-29T09:38:44.211Z,-1.71
2023-11-29T09:41:13.018Z,-1.71
2023-11-29T09:43:42.433Z,-1.70
2023-11-29T09:46:11.136Z,-1.72
2023-11-29T09:48:39.998Z,-1.85
2023-11-29T09:51:08.594Z,-1.87
2023-11-29T09:53:38.723Z,-1.87
2023-11-29T09:56:09.363Z,-1.90
2023-11-29T09:58:37.848Z,-1.89
2023-11-29T10:01:06.421Z,-1.95
2023-11-29T10:03:36.206Z,-1.89
2023-11-29T10:06:06.801Z,-1.87
2023-11-29T10:08:35.568Z,-1.78
2023-11-29T10:11:07.806Z,-1.67
2023-11-29T10:13:36.230Z,-1.59
2023-11-29T10:16:05.035Z,-1.59
2023-11-29T10:18:34.225Z,-1.56
2023-11-29T10:21:07.522Z,-1.46
2023-11-29T10:23:40.746Z,-1.44
2023-11-29T10:26:11.071Z,-1.39
2023-11-29T10:28:41.668Z,-1.38
2023-11-29T10:31:10.826Z,-1.38
2023-11-29T10:33:42.227Z,-1.37
2023-11-29T10:36:12.520Z,-1.39
2023-11-29T10:38:45.934Z,-1.40
2023-11-29T10:41:18.488Z,-1.45
2023-11-29T10:43:49.495Z,-1.54
2023-11-29T10:46:29.923Z,-1.46
2023-11-29T10:49:06.430Z,-1.39
2023-11-29T10:51:35.623Z,-1.46
2023-11-29T10:54:06.380Z,-1.42
2023-11-29T10:56:36.972Z,-1.42
2023-11-29T10:59:15.925Z,-1.48
2023-11-29T11:01:45.451Z,-1.39
2023-11-29T11:04:14.535Z,-1.37
2023-11-29T11:06:43.308Z,-1.35
2023-11-29T11:09:34.139Z,-1.35
2023-11-29T11:12:04.831Z,-1.38
2023-11-29T11:14:47.247Z,-1.33
2023-11-29T11:17:16.173Z,-1.27
2023-11-29T11:19:46.600Z,-1.25
2023-11-29T11:22:16.201Z,-1.38
2023-11-29T11:25:05.936Z,-1.28
2023-11-29T11:27:37.276Z,-1.21
2023-11-29T11:30:22.214Z,-1.19
2023-11-29T11:32:51.473Z,-1.07
2023-11-29T11:35:36.984Z,-1.04
2023-11-29T11:38:10.413Z,-1.13
2023-11-29T11:40:40.642Z,-1.08
2023-11-29T11:43:12.144Z,-1.10
2023-11-29T11:45:46.776Z,-1.02
2023-11-29T11:48:15.682Z,-1.06
2023-11-29T11:50:44.245Z,-1.04
2023-11-29T11:53:12.785Z,-0.96
2023-11-29T11:55:43.007Z,-0.86
2023-11-29T11:58:14.956Z,-0.79
2023-11-29T12:00:43.700Z,-0.77
2023-11-29T12:03:13.775Z,-0.74
2023-11-29T12:05:43.226Z,-0.70
2023-11-29T12:08:12.125Z,-0.70
2023-11-29T12:10:41.210Z,-0.75
2023-11-29T12:13:09.873Z,-0.69
2023-11-29T12:15:39.943Z,-0.60
2023-11-29T12:18:18.218Z,-0.59
2023-11-29T12:20:47.200Z,-0.55
2023-11-29T12:23:16.603Z,-0.65
2023-11-29T12:25:55.867Z,-0.69
2023-11-29T12:28:26.870Z,-0.73
2023-11-29T12:31:00.124Z,-0.68
2023-11-29T12:33:28.925Z,-0.75
2023-11-29T12:35:57.574Z,-0.72
2023-11-29T12:38:26.473Z,-0.75
2023-11-29T12:40:55.450Z,-0.75
2023-11-29T12:43:24.079Z,-0.73
2023-11-29T12:45:52.636Z,-0.63
2023-11-29T12:48:22.986Z,-0.57
2023-11-29T12:50:51.557Z,-0.77
2023-11-29T12:53:20.587Z,-0.54
2023-11-29T12:55:49.162Z,-0.47
2023-11-29T12:58:17.984Z,-0.47
2023-11-29T13:00:47.545Z,-0.42
2023-11-29T13:03:16.560Z,-0.39
2023-11-29T13:05:47.121Z,-0.31
2023-11-29T13:08:15.788Z,-0.20
2023-11-29T13:10:44.493Z,-0.13
2023-11-29T13:13:13.182Z,-0.02
2023-11-29T13:15:41.864Z,0.09
2023-11-29T13:18:10.530Z,0.11
2023-11-29T13:20:39.290Z,0.02
2023-11-29T13:23:09.256Z,0.13
2023-11-29T13:25:38.039Z,0.20
2023-11-29T13:28:06.665Z,0.14
2023-11-29T13:30:35.228Z,0.19
2023-11-29T13:33:03.990Z,0.11
2023-11-29T13:35:32.545Z,0.23
2023-11-29T13:38:01.392Z,0.53
2023-11-29T13:40:31.528Z,0.61
2023-11-29T13:43:00.664Z,0.57
2023-11-29T13:45:29.229Z,0.43
2023-11-29T13:47:58.034Z,0.42
2023-11-29T13:50:26.781Z,0.13
2023-11-29T13:52:55.411Z,0.28
2023-11-29T13:55:24.254Z,0.27
2023-11-29T13:57:54.206Z,0.15
2023-11-29T14:00:23.334Z,-0.02
2023-11-29T14:02:52.391Z,0.05
2023-11-29T14:05:22.613Z,0.09
2023-11-29T14:07:51.233Z,0.02
2023-11-29T14:10:20.594Z,-0.04
2023-11-29T14:12:49.078Z,-0.25
2023-11-29T14:15:19.492Z,-0.24
2023-11-29T14:17:48.161Z,-0.28
2023-11-29T14:20:19.076Z,-0.34
2023-11-29T14:22:47.548Z,-0.46
2023-11-29T14:25:16.121Z,-0.69
2023-11-29T14:27:51.914Z,-0.77
2023-11-29T14:30:27.123Z,-0.96
2023-11-29T14:32:55.684Z,-0.99
2023-11-29T14:35:24.207Z,-1.06
2023-11-29T14:37:52.779Z,-1.17
2023-11-29T14:40:21.481Z,-1.41
2023-11-29T14:42:50.027Z,-1.48
2023-11-29T14:45:18.602Z,-1.41
2023-11-29T14:47:51.343Z,-1.41
2023-11-29T14:50:19.987Z,-1.61
2023-11-29T14:52:48.954Z,-1.58
2023-11-29T14:55:17.753Z,-1.59
2023-11-29T14:57:46.220Z,-1.59
2023-11-29T15:00:16.223Z,-1.59
2023-11-29T15:02:45.210Z,-1.64
2023-11-29T15:05:15.181Z,-1.77
2023-11-29T15:07:43.731Z,-1.82
2023-11-29T15:10:12.232Z,-1.84
2023-11-29T15:12:40.713Z,-1.89
2023-11-29T15:15:10.270Z,-1.90
2023-11-29T15:17:38.888Z,-1.96
2023-11-29T15:20:09.506Z,-1.91
2023-11-29T15:22:39.503Z,-1.94
2023-11-29T15:25:14.750Z,-1.96
2023-11-29T15:27:48.440Z,-1.98
2023-11-29T15:30:17.387Z,-1.96
2023-11-29T15:32:47.986Z,-1.98
2023-11-29T15:35:18.407Z,-1.97
2023-11-29T15:37:48.398Z,-1.99
2023-11-29T15:40:17.718Z,-2.03
2023-11-29T15:42:46.298Z,-2.01
2023-11-29T15:45:14.872Z,-1.98
2023-11-29T15:47:43.395Z,-1.96
2023-11-29T15:50:12.741Z,-2.01
2023-11-29T15:52:41.246Z,-2.01
2023-11-29T15:55:11.700Z,-1.99
2023-11-29T15:57:40.173Z,-2.02
2023-11-29T16:00:10.288Z,-1.98
2023-11-29T16:02:39.268Z,-1.98
2023-11-29T16:05:08.522Z,-1.98
2023-11-29T16:07:38.331Z,-1.99
2023-11-29T16:10:07.907Z,-2.00
2023-11-29T16:12:37.954Z,-2.01
2023-11-29T16:15:07.708Z,-1.99
2023-11-29T16:17:36.381Z,-2.03
2023-11-29T16:20:05.166Z,-2.01
2023-11-29T16:22:33.812Z,-2.04
2023-11-29T16:25:02.311Z,-2.04
2023-11-29T16:27:36.931Z,-2.11
2023-11-29T16:30:08.738Z,-2.06
2023-11-29T16:32:37.584Z,-2.09
2023-11-29T16:35:07.506Z,-2.11
2023-11-29T16:37:35.002Z,-2.16
2023-11-29T16:40:03.492Z,-2.11
2023-11-29T16:42:33.666Z,-2.07
2023-11-29T16:45:02.347Z,-2.08
2023-11-29T16:47:32.354Z,-2.06
2023-11-29T16:50:01.240Z,-2.01
2023-11-29T16:52:29.754Z,-2.00
2023-11-29T16:54:58.596Z,-2.00
2023-11-29T16:57:27.191Z,-2.00
2023-11-29T16:59:55.862Z,-1.96
2023-11-29T17:02:24.636Z,-1.94
2023-11-29T17:04:54.900Z,-1.94
2023-11-29T17:07:23.378Z,-1.96
2023-11-29T17:09:51.814Z,-1.97
2023-11-29T17:12:20.394Z,-1.97
2023-11-29T17:14:50.467Z,-1.94
2023-11-29T17:17:23.050Z,-1.96
2023-11-29T17:19:54.193Z,-1.98
2023-11-29T17:22:22.713Z,-1.95
2023-11-29T17:24:51.282Z,-1.96
2023-11-29T17:27:20.883Z,-1.98
2023-11-29T17:29:49.715Z,-1.98
2023-11-29T17:32:18.224Z,-2.01
2023-11-29T17:34:46.716Z,-2.01
2023-11-29T17:37:17.978Z,-2.00
2023-11-29T17:39:46.690Z,-2.04
2023-11-29T17:42:15.583Z,-2.05
2023-11-29T17:44:44.123Z,-2.02
2023-11-29T17:47:13.369Z,-2.06
2023-11-29T17:49:41.868Z,-2.07
2023-11-29T17:52:10.738Z,-2.03
2023-11-29T17:54:40.751Z,-2.00
2023-11-29T17:57:09.390Z,-2.01
2023-11-29T17:59:38.237Z,-1.99
2023-11-29T18:02:07.715Z,-1.95
2023-11-29T18:04:36.675Z,-1.92
2023-11-29T18:07:05.571Z,-1.92
2023-11-29T18:09:34.109Z,-1.86
2023-11-29T18:12:07.203Z,-1.87
2023-11-29T18:14:35.773Z,-1.75
2023-11-29T18:17:04.560Z,-1.77
2023-11-29T18:19:33.582Z,-1.70
2023-11-29T18:22:02.085Z,-1.70
2023-11-29T18:24:30.542Z,-1.73
2023-11-29T18:26:59.057Z,-1.74
2023-11-29T18:29:30.095Z,-1.78
2023-11-29T18:31:58.573Z,-1.74
2023-11-29T18:34:27.123Z,-1.73
2023-11-29T18:36:55.659Z,-1.78
2023-11-29T18:39:24.252Z,-1.75
2023-11-29T18:41:52.744Z,-1.80
2023-11-29T18:44:21.879Z,-1.81
2023-11-29T18:46:51.884Z,-1.83
2023-11-29T18:49:21.157Z,-1.87
2023-11-29T18:51:50.139Z,-1.88
2023-11-29T18:54:18.731Z,-1.97
2023-11-29T18:56:50.535Z,-2.03
2023-11-29T18:59:19.575Z,-2.05
2023-11-29T19:01:49.181Z,-2.03
2023-11-29T19:04:23.303Z,-2.02
2023-11-29T19:06:51.921Z,-2.03
2023-11-29T19:09:21.419Z,-2.02
2023-11-29T19:11:50.036Z,-2.10
2023-11-29T19:14:18.797Z,-2.09
2023-11-29T19:16:47.885Z,-2.12
2023-11-29T19:19:16.421Z,-2.16
2023-11-29T19:21:46.542Z,-2.18
2023-11-29T19:24:15.205Z,-2.17
2023-11-29T19:26:43.712Z,-2.19
2023-11-29T19:29:12.230Z,-2.13
2023-11-29T19:31:40.838Z,-2.12
2023-11-29T19:34:10.064Z,-2.12
2023-11-29T19:36:38.537Z,-2.09
2023-11-29T19:39:08.407Z,-2.10
2023-11-29T19:41:37.149Z,-2.06
2023-11-29T19:44:05.965Z,-2.05
2023-11-29T19:46:34.529Z,-2.02
2023-11-29T19:49:03.120Z,-2.02
2023-11-29T19:51:31.549Z,-2.01
2023-11-29T19:54:00.149Z,-2.00
2023-11-29T19:56:30.107Z,-1.95
2023-11-29T19:58:58.607Z,-1.92
2023-11-29T20:01:29.085Z,-1.90
2023-11-29T20:03:57.567Z,-1.87
2023-11-29T20:06:31.420Z,-1.82
2023-11-29T20:09:04.012Z,-1.73
2023-11-29T20:11:37.053Z,-1.67
2023-11-29T20:14:10.892Z,-1.62
2023-11-29T20:16:45.154Z,-1.60
2023-11-29T20:19:13.763Z,-1.53
2023-11-29T20:21:42.317Z,-1.50
2023-11-29T20:24:10.838Z,-1.46
2023-11-29T20:26:40.755Z,-1.40
2023-11-29T20:29:09.243Z,-1.33
2023-11-29T20:31:38.542Z,-1.32
2023-11-29T20:34:14.828Z,-1.28
2023-11-29T20:36:49.949Z,-1.21
2023-11-29T20:39:18.967Z,-1.14
2023-11-29T20:41:51.128Z,-1.11
2023-11-29T20:44:20.083Z,-1.09
2023-11-29T20:46:49.033Z,-1.11
2023-11-29T20:49:17.494Z,-1.13
2023-11-29T20:51:45.976Z,-1.13
2023-11-29T20:54:14.441Z,-1.18
2023-11-29T20:56:43.024Z,-1.15
2023-11-29T20:59:13.689Z,-1.18
2023-11-29T21:01:42.680Z,-1.15
2023-11-29T21:04:13.193Z,-1.18
2023-11-29T21:06:42.060Z,-1.17
2023-11-29T21:09:10.757Z,-1.13
2023-11-29T21:11:39.769Z,-1.12
2023-11-29T21:14:08.584Z,-1.09
2023-11-29T21:16:38.660Z,-1.04
2023-11-29T21:19:07.346Z,-1.00
2023-11-29T21:21:35.998Z,-0.95
2023-11-29T21:24:05.995Z,-0.88
2023-11-29T21:26:34.791Z,-0.83
2023-11-29T21:29:03.472Z,-0.73
2023-11-29T21:31:33.425Z,-0.69
2023-11-29T21:34:03.604Z,-0.64
2023-11-29T21:36:32.118Z,-0.54
2023-11-29T21:39:01.502Z,-0.44
2023-11-29T21:41:33.181Z,-0.40
2023-11-29T21:44:01.968Z,-0.38
2023-11-29T21:46:30.561Z,-0.37
2023-11-29T21:48:59.255Z,-0.36
2023-11-29T21:51:30.585Z,-0.35
2023-11-29T21:53:59.378Z,-0.36
2023-11-29T21:56:28.180Z,-0.35
2023-11-29T21:58:56.664Z,-0.36
2023-11-29T22:01:26.327Z,-0.34
2023-11-29T22:03:55.084Z,-0.32
2023-11-29T22:06:25.808Z,-0.33
2023-11-29T22:08:55.828Z,-0.32
2023-11-29T22:11:24.416Z,-0.30
2023-11-29T22:13:53.215Z,-0.34
2023-11-29T22:16:25.553Z,-0.35
2023-11-29T22:18:56.121Z,-0.32
2023-11-29T22:21:26.746Z,-0.29
2023-11-29T22:23:57.602Z,-0.29
2023-11-29T22:26:27.433Z,-0.28
2023-11-29T22:28:56.020Z,-0.29
2023-11-29T22:31:24.616Z,-0.29
2023-11-29T22:33:53.158Z,-0.32
2023-11-29T22:36:22.430Z,-0.28
2023-11-29T22:38:51.409Z,-0.28
2023-11-29T22:41:26.051Z,-0.26
2023-11-29T22:43:55.324Z,-0.29
2023-11-29T22:46:26.382Z,-0.22
2023-11-29T22:48:55.336Z,-0.20
2023-11-29T22:51:25.459Z,-0.19
2023-11-29T22:53:54.248Z,-0.17
2023-11-29T22:56:27.454Z,-0.16
2023-11-29T22:58:56.037Z,-0.16
2023-11-29T23:01:28.538Z,-0.15
2023-11-29T23:03:57.482Z,-0.16
2023-11-29T23:06:26.507Z,-0.16
2023-11-29T23:08:55.540Z,-0.17
2023-11-29T23:11:24.346Z,-0.17
2023-11-29T23:13:54.533Z,-0.16
2023-11-29T23:16:23.298Z,-0.15
2023-11-29T23:18:52.166Z,-0.17
2023-11-29T23:21:21.552Z,-0.18
2023-11-29T23:23:50.282Z,-0.19
2023-11-29T23:26:19.200Z,-0.16
2023-11-29T23:28:47.922Z,-0.13
2023-11-29T23:31:17.954Z,-0.12
2023-11-29T23:33:46.536Z,-0.12
2023-11-29T23:36:15.087Z,-0.11
2023-11-29T23:38:43.717Z,-0.08
2023-11-29T23:41:15.822Z,-0.10
2023-11-29T23:43:44.473Z,-0.08
2023-11-29T23:46:13.190Z,-0.08
2023-11-29T23:48:43.122Z,-0.03
2023-11-29T23:51:13.614Z,0.00
2023-11-29T23:53:43.546Z,-0.02
2023-11-29T23:56:14.267Z,0.00
2023-11-29T23:58:43.246Z,0.02
